Terminal Aerodrome Forecast
Issued by NWS Atlanta, GA

Home | Current Version | Previous Version | Text Only | Print | Product List | Glossary On
Versions: 1 2 3 4 5 6 7 8 9 10 11 12 13 14 15 16 17 18 19
000
FTUS42 KFFC 311700
TAFMCN
TAF
KMCN 311723Z 3118/0118 32006KT P6SM SKC
     FM312000 31008KT P6SM BKN080
     FM010300 31012G25KT P6SM BKN025
     FM011400 30020G32KT P6SM BKN030=

USA.gov is the U.S. government's official web portal to all federal, state and local government web resources and services.